Time;durP1;ratioP1;P1;durP2;ratioP2;P2;SDS_P1;SDS_P2;PMS_P1;PMS_P2;Temp;Humidity;BMP_temperature;BMP_pressure;BME280_temperature;BME280_humidity;BME280_pressure;Samples;Min_cycle;Max_cycle;Signal;HPM_P1;HPM_P2
2022/12/22 03:27:13;;;;;;;4.45;2.72;;;11.20;87.60;;;;;;5041447;28;20033;-61
2022/12/22 03:29:39;;;;;;;2.78;1.92;;;11.30;87.60;;;;;;5048817;28;20025;-61
2022/12/22 03:32:05;;;;;;;2.28;1.98;;;11.30;87.50;;;;;;5048726;28;20396;-59
2022/12/22 03:34:30;;;;;;;2.85;1.90;;;11.30;87.50;;;;;;5047210;28;20429;-60
2022/12/22 03:36:56;;;;;;;2.30;1.88;;;11.30;87.50;;;;;;5044575;28;20051;-58
2022/12/22 03:39:21;;;;;;;5.78;2.72;;;11.30;87.50;;;;;;5047273;28;20028;-60
2022/12/22 03:47:16;;;;;;;4.13;2.30;;;11.30;87.50;;;;;;5045003;28;20048;-58
2022/12/22 03:49:41;;;;;;;4.63;2.53;;;11.30;87.50;;;;;;5036853;28;20029;-60
2022/12/22 03:52:07;;;;;;;3.95;2.22;;;11.30;87.50;;;;;;5048606;28;20040;-60
2022/12/22 03:54:32;;;;;;;3.83;2.60;;;11.40;87.50;;;;;;5045330;28;20485;-60
2022/12/22 03:56:58;;;;;;;4.53;2.72;;;11.30;87.40;;;;;;5047118;28;20342;-58
2022/12/22 03:59:24;;;;;;;2.85;1.95;;;11.40;87.40;;;;;;5045516;28;20476;-59
2022/12/22 04:01:53;;;;;;;2.92;2.10;;;11.40;87.40;;;;;;5039542;28;20029;-58
2022/12/22 04:04:21;;;;;;;3.00;2.67;;;11.30;87.40;;;;;;5047880;28;20037;-58
2022/12/22 04:06:47;;;;;;;2.20;2.00;;;11.30;87.50;;;;;;5046300;28;20028;-58
2022/12/22 04:09:13;;;;;;;2.22;1.63;;;11.30;87.50;;;;;;5043625;28;20040;-60
2022/12/22 04:14:23;;;;;;;3.78;2.15;;;11.30;87.40;;;;;;5047270;28;20431;-58
2022/12/22 04:16:49;;;;;;;3.75;2.65;;;11.30;87.50;;;;;;5047318;28;20025;-60
2022/12/22 04:19:15;;;;;;;2.97;2.28;;;11.30;87.50;;;;;;5048118;28;20017;-60
2022/12/22 04:21:41;;;;;;;2.47;1.80;;;11.30;87.50;;;;;;5048042;28;20024;-59
2022/12/22 04:24:07;;;;;;;2.80;1.60;;;11.30;87.50;;;;;;5036551;28;20140;-58
2022/12/22 04:26:33;;;;;;;1.48;1.33;;;11.30;87.50;;;;;;5045294;28;20349;-60
2022/12/22 04:28:59;;;;;;;2.10;1.70;;;11.30;87.40;;;;;;5048441;28;20063;-61
2022/12/22 04:31:25;;;;;;;2.47;1.90;;;11.30;87.40;;;;;;5051660;28;20017;-59
2022/12/22 04:33:51;;;;;;;2.70;1.90;;;11.30;87.40;;;;;;5051352;28;20095;-58
2022/12/22 04:36:17;;;;;;;2.05;1.63;;;11.30;87.40;;;;;;5046016;28;20017;-59
2022/12/22 04:38:43;;;;;;;2.65;1.75;;;11.30;87.40;;;;;;5046583;28;20029;-60
2022/12/22 04:41:09;;;;;;;2.65;2.22;;;11.30;87.50;;;;;;5043358;28;20108;-58
2022/12/22 04:43:35;;;;;;;3.45;2.40;;;11.30;87.40;;;;;;5030297;28;20124;-58
2022/12/22 04:46:01;;;;;;;2.65;1.88;;;11.40;87.50;;;;;;5047599;28;20341;-58
2022/12/22 04:48:27;;;;;;;2.65;2.05;;;11.40;87.50;;;;;;5046230;28;20036;-58
2022/12/22 04:50:56;;;;;;;3.17;1.60;;;11.40;87.50;;;;;;5052396;28;20044;-58
2022/12/22 04:53:22;;;;;;;3.50;2.45;;;11.40;87.50;;;;;;5047392;28;20094;-58
2022/12/22 04:56:04;;;;;;;4.53;2.63;;;11.40;87.50;;;;;;5059022;28;20044;-59
2022/12/22 04:58:30;;;;;;;3.90;2.88;;;11.40;88.00;;;;;;5055216;28;20037;-59
2022/12/22 05:00:56;;;;;;;3.95;3.22;;;11.40;87.50;;;;;;5044076;28;20025;-58
2022/12/22 05:03:23;;;;;;;6.10;2.80;;;11.40;87.50;;;;;;5047187;28;20033;-58
2022/12/22 05:05:49;;;;;;;5.80;2.90;;;11.40;87.50;;;;;;5048700;28;20071;-60
2022/12/22 05:08:15;;;;;;;4.32;2.42;;;11.40;87.50;;;;;;5048268;28;20087;-59
2022/12/22 05:10:41;;;;;;;4.10;2.45;;;11.40;87.50;;;;;;5046990;28;20037;-60
2022/12/22 05:13:06;;;;;;;3.72;3.05;;;11.40;87.50;;;;;;5047819;28;20025;-59
2022/12/22 05:15:33;;;;;;;3.28;2.50;;;11.40;87.50;;;;;;5046450;28;20094;-59
2022/12/22 05:18:00;;;;;;;3.45;2.88;;;11.40;87.50;;;;;;5046607;28;20040;-58
2022/12/22 05:20:26;;;;;;;6.80;3.20;;;11.40;87.50;;;;;;5049444;28;20035;-61
2022/12/22 05:22:52;;;;;;;4.28;2.45;;;11.50;87.50;;;;;;5049246;28;20121;-60
2022/12/22 05:25:18;;;;;;;2.92;2.35;;;11.50;87.50;;;;;;5046996;28;20108;-60
2022/12/22 05:27:46;;;;;;;3.20;2.45;;;11.50;87.40;;;;;;5046144;28;20029;-58
2022/12/22 05:30:13;;;;;;;3.10;2.22;;;11.50;87.40;;;;;;5050442;28;20029;-58
2022/12/22 05:32:39;;;;;;;3.28;2.50;;;11.50;87.40;;;;;;5046051;28;20537;-61
2022/12/22 05:35:06;;;;;;;2.58;2.28;;;11.50;87.40;;;;;;5051273;28;20029;-60
2022/12/22 05:37:32;;;;;;;3.88;2.80;;;11.40;87.60;;;;;;5045835;28;20135;-61
2022/12/22 05:39:57;;;;;;;5.03;2.55;;;11.40;87.70;;;;;;5053862;28;20111;-60
2022/12/22 05:42:35;;;;;;;6.07;2.92;;;11.40;87.70;;;;;;5046507;28;20033;-61
2022/12/22 05:45:07;;;;;;;4.07;2.60;;;11.40;87.70;;;;;;5045245;28;20072;-58
2022/12/22 05:47:33;;;;;;;2.80;2.60;;;11.40;87.70;;;;;;5048386;28;20064;-59
2022/12/22 05:49:59;;;;;;;3.97;3.20;;;11.40;87.70;;;;;;5050212;28;20396;-60
2022/12/22 05:52:25;;;;;;;4.85;3.10;;;11.40;87.70;;;;;;5046171;28;20055;-58
2022/12/22 05:54:52;;;;;;;4.25;2.88;;;11.40;87.80;;;;;;5049353;28;20427;-60
2022/12/22 05:57:18;;;;;;;4.40;3.20;;;11.50;87.80;;;;;;5047743;28;20462;-58
2022/12/22 05:59:44;;;;;;;3.88;3.10;;;11.50;87.80;;;;;;5042881;28;20104;-58
2022/12/22 06:02:09;;;;;;;3.35;2.30;;;11.50;87.80;;;;;;5045971;28;20033;-58
2022/12/22 06:04:35;;;;;;;3.70;2.45;;;11.50;87.90;;;;;;5051566;28;20086;-58
2022/12/22 06:07:01;;;;;;;3.88;2.65;;;11.50;87.90;;;;;;5040300;28;20640;-58
2022/12/22 06:09:26;;;;;;;4.57;2.60;;;11.50;87.90;;;;;;5034305;28;20548;-60
2022/12/22 06:11:52;;;;;;;2.47;1.73;;;11.50;87.80;;;;;;5042764;28;20025;-58
2022/12/22 06:14:18;;;;;;;4.05;3.00;;;11.50;87.80;;;;;;5055389;28;20073;-58
2022/12/22 06:16:43;;;;;;;4.93;3.38;;;11.50;87.80;;;;;;5047442;28;20079;-58
2022/12/22 06:19:09;;;;;;;4.95;3.47;;;11.50;87.80;;;;;;5052251;28;20419;-59
2022/12/22 06:21:35;;;;;;;5.43;2.80;;;11.50;88.00;;;;;;5048106;28;20025;-60
2022/12/22 06:24:01;;;;;;;3.40;3.10;;;11.50;88.00;;;;;;5045860;28;20032;-58
2022/12/22 06:26:27;;;;;;;3.03;2.60;;;11.50;88.10;;;;;;5038012;28;20044;-60
2022/12/22 06:28:52;;;;;;;6.53;4.40;;;11.50;88.20;;;;;;5042434;28;20029;-58
2022/12/22 06:31:18;;;;;;;4.85;3.67;;;11.50;88.30;;;;;;5047547;28;20033;-59
2022/12/22 06:33:44;;;;;;;5.43;3.47;;;11.50;88.40;;;;;;5048977;28;20060;-59
2022/12/22 06:36:10;;;;;;;5.93;3.45;;;11.50;88.50;;;;;;5045601;28;20086;-59
2022/12/22 06:38:36;;;;;;;5.32;3.55;;;11.50;89.00;;;;;;5044908;28;20108;-62
2022/12/22 06:41:02;;;;;;;5.15;3.40;;;11.50;88.30;;;;;;5044917;28;20629;-61
2022/12/22 06:43:27;;;;;;;6.70;3.78;;;11.50;88.40;;;;;;5038109;28;20056;-59
2022/12/22 06:45:53;;;;;;;4.22;2.90;;;11.50;88.50;;;;;;5046894;28;20029;-58
2022/12/22 06:48:19;;;;;;;3.90;2.80;;;11.40;88.50;;;;;;5046928;28;20365;-58
2022/12/22 06:50:45;;;;;;;5.88;3.55;;;11.40;88.50;;;;;;5046256;28;20131;-58
2022/12/22 06:53:11;;;;;;;6.30;3.67;;;11.40;88.50;;;;;;5045020;28;20464;-59
2022/12/22 06:55:37;;;;;;;6.97;3.67;;;11.50;88.60;;;;;;5045211;28;20454;-58
2022/12/22 06:58:03;;;;;;;4.28;3.28;;;11.50;88.60;;;;;;5046121;28;20048;-59
2022/12/22 07:00:29;;;;;;;3.83;2.38;;;11.50;88.50;;;;;;5043827;28;20021;-59
2022/12/22 07:02:55;;;;;;;5.72;3.38;;;11.50;88.50;;;;;;5048398;28;20025;-59
2022/12/22 07:05:22;;;;;;;6.63;3.95;;;11.50;88.50;;;;;;5044613;28;20081;-59
2022/12/22 07:07:48;;;;;;;7.22;3.83;;;11.50;88.50;;;;;;5042330;28;20519;-59
2022/12/22 07:10:14;;;;;;;8.52;3.65;;;11.50;88.60;;;;;;5043959;28;20079;-59
2022/12/22 07:12:40;;;;;;;7.15;3.38;;;11.50;88.60;;;;;;5032629;28;20018;-59
2022/12/22 07:15:06;;;;;;;3.95;2.38;;;11.50;88.60;;;;;;5037164;28;20385;-58
2022/12/22 07:17:32;;;;;;;5.15;2.78;;;11.50;88.50;;;;;;5041313;28;20033;-61
2022/12/22 07:19:58;;;;;;;4.30;2.55;;;11.50;88.50;;;;;;5046708;28;20275;-61
2022/12/22 07:22:23;;;;;;;4.53;2.40;;;11.50;88.50;;;;;;5030773;28;20048;-59
2022/12/22 07:24:50;;;;;;;2.70;2.15;;;11.50;88.50;;;;;;5046556;28;20025;-58
2022/12/22 07:27:15;;;;;;;5.15;2.33;;;11.50;88.50;;;;;;5041654;28;20055;-58
2022/12/22 07:29:41;;;;;;;3.42;2.70;;;11.50;88.50;;;;;;5044228;28;20087;-59
2022/12/22 07:32:07;;;;;;;4.35;2.30;;;11.50;88.60;;;;;;5047441;28;20584;-61
2022/12/22 07:34:33;;;;;;;3.60;2.70;;;11.50;88.50;;;;;;5046289;28;20099;-59
2022/12/22 07:36:59;;;;;;;6.53;3.45;;;11.50;88.50;;;;;;5046758;28;20052;-59
2022/12/22 07:39:24;;;;;;;4.75;3.50;;;11.40;88.40;;;;;;5049136;28;20029;-59
2022/12/22 07:44:34;;;;;;;5.82;3.38;;;11.30;88.60;;;;;;5033616;28;20060;-60
2022/12/22 07:47:00;;;;;;;4.45;3.05;;;11.30;88.70;;;;;;5040195;28;20033;-59
2022/12/22 07:52:09;;;;;;;8.13;3.95;;;11.30;88.90;;;;;;5037038;28;20044;-59
2022/12/22 07:54:35;;;;;;;4.65;2.60;;;11.20;88.80;;;;;;5047687;28;20508;-59
2022/12/22 07:57:01;;;;;;;4.38;3.50;;;11.20;88.80;;;;;;5044739;28;20025;-62
2022/12/22 07:59:27;;;;;;;7.38;4.32;;;11.20;88.80;;;;;;5044396;28;20021;-64
2022/12/22 08:01:53;;;;;;;6.00;4.13;;;11.20;88.80;;;;;;5046751;28;20031;-59
2022/12/22 08:04:18;;;;;;;7.05;4.60;;;11.10;88.80;;;;;;5048823;28;20037;-64
2022/12/22 08:06:44;;;;;;;11.77;5.13;;;11.10;88.90;;;;;;5032738;28;20440;-64
2022/12/22 08:09:14;;;;;;;6.20;4.57;;;11.10;89.00;;;;;;5050422;28;20036;-64
2022/12/22 08:11:40;;;;;;;6.07;4.60;;;11.10;89.00;;;;;;5051044;28;20492;-60
2022/12/22 08:14:05;;;;;;;9.20;5.50;;;11.10;89.00;;;;;;5051280;28;20410;-64
2022/12/22 08:16:31;;;;;;;8.02;4.55;;;11.10;88.90;;;;;;5051241;28;20488;-60
2022/12/22 08:18:56;;;;;;;8.15;4.97;;;11.10;89.00;;;;;;5052908;28;20048;-65
2022/12/22 08:21:22;;;;;;;8.80;5.68;;;11.10;88.90;;;;;;5049020;28;20048;-60
2022/12/22 08:23:48;;;;;;;7.00;5.65;;;11.10;89.40;;;;;;5040008;28;20045;-64
2022/12/22 08:26:26;;;;;;;10.48;5.40;;;11.10;88.60;;;;;;5046616;28;20040;-59
2022/12/22 08:29:07;;;;;;;6.60;4.78;;;11.20;88.60;;;;;;5048553;28;20551;-64
2022/12/22 08:31:33;;;;;;;7.25;5.30;;;11.20;88.60;;;;;;5046908;28;20029;-63
2022/12/22 08:34:02;;;;;;;6.95;4.50;;;11.20;88.60;;;;;;5050267;28;20064;-59
2022/12/22 08:36:29;;;;;;;11.40;5.90;;;11.30;88.60;;;;;;5040096;28;20029;-59
2022/12/22 08:38:56;;;;;;;10.25;6.47;;;11.20;88.50;;;;;;5045824;28;20411;-63
2022/12/22 08:41:48;;;;;;;10.48;5.60;;;11.30;88.50;;;;;;5043873;28;20639;-64
2022/12/22 08:44:07;;;;;;;7.47;5.15;;;11.30;88.40;;;;;;5049185;28;20033;-65
2022/12/22 08:46:33;;;;;;;10.73;5.95;;;11.30;88.30;;;;;;5038524;28;20120;-63
2022/12/22 08:48:58;;;;;;;8.20;5.07;;;11.30;88.20;;;;;;5046732;28;20048;-65
2022/12/22 08:51:24;;;;;;;8.02;5.90;;;11.30;88.10;;;;;;5051568;28;20071;-65
2022/12/22 08:53:49;;;;;;;9.57;6.95;;;11.30;88.10;;;;;;5049254;28;20515;-66
2022/12/22 08:56:15;;;;;;;11.65;5.60;;;11.30;88.10;;;;;;5050572;28;20079;-60
2022/12/22 08:58:41;;;;;;;8.35;5.70;;;11.30;88.00;;;;;;5048701;28;20025;-60
2022/12/22 09:01:07;;;;;;;9.65;5.90;;;11.30;88.00;;;;;;5047276;28;20040;-60
2022/12/22 09:03:32;;;;;;;9.43;6.47;;;11.30;87.90;;;;;;5050416;28;20060;-59
2022/12/22 09:06:02;;;;;;;10.18;6.55;;;11.30;87.80;;;;;;5050457;28;20048;-59
2022/12/22 09:08:28;;;;;;;10.63;6.68;;;11.20;87.90;;;;;;5048167;28;20068;-58
2022/12/22 09:10:53;;;;;;;15.75;6.20;;;11.20;87.90;;;;;;5048978;28;20053;-59
2022/12/22 09:13:19;;;;;;;12.85;7.63;;;11.20;87.80;;;;;;5050911;28;20040;-59
2022/12/22 09:15:45;;;;;;;12.85;6.97;;;11.10;87.70;;;;;;5046394;28;20039;-58
2022/12/22 09:18:10;;;;;;;13.05;7.18;;;11.10;87.90;;;;;;5051678;28;20037;-63
2022/12/22 09:20:36;;;;;;;11.68;7.40;;;11.10;87.90;;;;;;5051304;28;20088;-57
2022/12/22 09:23:02;;;;;;;10.73;5.05;;;11.10;87.90;;;;;;5047754;28;20469;-62
2022/12/22 09:25:28;;;;;;;14.15;8.52;;;11.10;87.90;;;;;;5050251;28;20036;-62
2022/12/22 09:27:53;;;;;;;9.95;6.72;;;11.10;87.70;;;;;;5043789;28;20045;-63
2022/12/22 09:30:19;;;;;;;9.32;6.80;;;11.10;87.70;;;;;;5039681;28;20112;-58
2022/12/22 09:32:45;;;;;;;11.95;6.60;;;11.10;87.70;;;;;;5047386;28;20092;-57
2022/12/22 09:35:11;;;;;;;11.80;5.80;;;11.10;87.70;;;;;;5037264;28;20029;-62
2022/12/22 09:37:36;;;;;;;13.30;5.70;;;11.10;87.50;;;;;;5048437;28;20345;-58
2022/12/22 09:40:02;;;;;;;8.43;5.70;;;11.10;87.40;;;;;;5049239;28;20045;-58
2022/12/22 09:42:33;;;;;;;10.63;6.93;;;10.90;86.90;;;;;;5026555;28;20034;-58
2022/12/22 09:44:58;;;;;;;6.45;5.13;;;10.90;86.90;;;;;;5043199;28;20025;-57
2022/12/22 09:47:38;;;;;;;12.77;5.47;;;10.90;87.00;;;;;;5050127;28;20368;-61
2022/12/22 09:50:07;;;;;;;9.23;6.22;;;11.00;87.60;;;;;;5051148;28;20032;-62
2022/12/22 09:52:33;;;;;;;10.73;6.35;;;11.00;87.00;;;;;;5042205;28;20083;-62
2022/12/22 09:54:59;;;;;;;9.13;5.70;;;11.10;86.70;;;;;;5042286;28;20045;-57
2022/12/22 09:57:32;;;;;;;13.82;5.85;;;11.10;86.60;;;;;;5047999;28;20087;-61
2022/12/22 10:00:06;;;;;;;10.20;6.38;;;11.20;86.60;;;;;;5046843;28;20032;-62
2022/12/22 10:02:42;;;;;;;9.07;5.78;;;11.20;86.50;;;;;;5040053;28;20032;-62
2022/12/22 10:05:26;;;;;;;11.10;5.45;;;11.20;86.40;;;;;;5036231;28;20566;-62
2022/12/22 10:07:57;;;;;;;8.13;4.93;;;11.20;86.30;;;;;;5043372;28;20115;-62
2022/12/22 10:10:27;;;;;;;7.50;5.22;;;11.20;86.30;;;;;;5045387;28;20032;-62
2022/12/22 10:12:59;;;;;;;6.72;4.32;;;11.20;86.10;;;;;;5043100;28;20102;-62
2022/12/22 10:15:25;;;;;;;9.13;5.20;;;11.20;86.00;;;;;;5041183;28;20036;-58
2022/12/22 10:18:06;;;;;;;9.82;5.18;;;11.20;85.70;;;;;;5047783;28;20021;-58
2022/12/22 10:20:32;;;;;;;10.85;5.28;;;11.10;85.70;;;;;;5049485;28;20055;-58
2022/12/22 10:23:03;;;;;;;9.15;5.18;;;11.10;85.90;;;;;;5025995;28;20029;-62
2022/12/22 10:25:30;;;;;;;10.88;5.50;;;11.00;85.60;;;;;;5048529;28;20496;-62
2022/12/22 10:27:59;;;;;;;10.68;6.15;;;11.00;85.90;;;;;;5036785;28;20039;-58
2022/12/22 10:30:34;;;;;;;13.23;6.28;;;11.20;85.50;;;;;;5046957;28;20037;-58
2022/12/22 10:33:07;;;;;;;9.27;5.35;;;11.40;85.50;;;;;;5044432;28;20159;-62
2022/12/22 10:35:39;;;;;;;9.20;5.10;;;11.80;84.40;;;;;;5050701;28;20033;-62
2022/12/22 10:38:25;;;;;;;17.30;5.85;;;12.10;83.70;;;;;;5035021;28;20460;-58
2022/12/22 10:40:58;;;;;;;9.63;5.22;;;12.10;82.50;;;;;;5035208;28;20096;-58
2022/12/22 10:43:26;;;;;;;;;;;12.00;81.90;;;;;;5042324;28;20455;-58
2022/12/22 10:45:54;;;;;;;9.65;4.60;;;11.80;81.40;;;;;;5054226;28;19944;-58
2022/12/22 10:48:52;;;;;;;11.63;4.82;;;11.60;82.20;;;;;;5048736;28;20416;-62
2022/12/22 10:51:24;;;;;;;8.27;4.53;;;11.70;82.00;;;;;;5035780;28;20820;-64
2022/12/22 10:53:54;;;;;;;8.57;4.22;;;11.80;82.00;;;;;;5042423;28;20063;-59
2022/12/22 10:56:29;;;;;;;7.75;4.03;;;11.90;81.60;;;;;;5040333;28;20025;-59
2022/12/22 10:59:03;;;;;;;6.65;3.85;;;12.00;81.00;;;;;;5035231;28;20091;-58
2022/12/22 11:01:32;;;;;;;8.88;4.18;;;11.80;81.10;;;;;;5043368;28;20025;-58
2022/12/22 11:04:21;;;;;;;9.20;4.00;;;11.70;81.50;;;;;;5036249;28;20044;-63
2022/12/22 11:06:47;;;;;;;7.28;3.78;;;11.60;81.70;;;;;;5044687;28;20377;-58
2022/12/22 11:09:13;;;;;;;7.10;3.88;;;11.60;81.90;;;;;;5051608;28;20040;-63
2022/12/22 11:11:38;;;;;;;5.70;3.35;;;11.80;81.50;;;;;;5041162;28;20025;-63
2022/12/22 11:14:18;;;;;;;6.28;3.47;;;12.00;79.80;;;;;;5048617;28;20387;-58
2022/12/22 11:16:57;;;;;;;6.82;2.88;;;12.00;79.40;;;;;;5037546;28;20078;-59
2022/12/22 11:19:45;;;;;;;5.00;2.88;;;11.80;79.80;;;;;;5043140;28;20033;-58
2022/12/22 11:22:26;;;;;;;7.57;3.35;;;11.70;80.30;;;;;;5038738;28;20036;-58
2022/12/22 11:25:16;;;;;;;4.82;3.03;;;11.50;80.60;;;;;;5045005;28;20119;-63
2022/12/22 11:27:47;;;;;;;4.47;2.92;;;11.40;80.70;;;;;;5035831;28;20033;-58
2022/12/22 11:30:15;;;;;;;7.13;2.95;;;11.30;81.40;;;;;;5036075;28;20073;-58
2022/12/22 11:32:44;;;;;;;4.43;3.33;;;11.20;81.50;;;;;;5050104;28;20032;-58
2022/12/22 11:35:09;;;;;;;5.68;3.22;;;11.10;81.90;;;;;;5045188;28;20487;-58
2022/12/22 11:37:47;;;;;;;10.13;3.90;;;11.00;82.10;;;;;;5043162;28;20105;-59
2022/12/22 11:40:32;;;;;;;4.78;3.35;;;10.90;82.50;;;;;;5050626;28;20021;-63
2022/12/22 11:43:04;;;;;;;6.38;3.42;;;10.90;82.90;;;;;;5043677;28;20411;-63
2022/12/22 11:45:30;;;;;;;6.00;2.85;;;11.00;83.20;;;;;;5045568;28;20104;-63
2022/12/22 11:48:20;;;;;;;5.30;3.47;;;11.10;83.00;;;;;;5052155;28;20391;-59
2022/12/22 11:50:49;;;;;;;6.30;4.05;;;11.20;83.10;;;;;;5051250;28;20037;-59
2022/12/22 11:53:52;;;;;;;5.28;4.00;;;11.40;83.00;;;;;;5050129;28;20028;-59
2022/12/22 11:56:20;;;;;;;;;;;12.70;82.20;;;;;;5047968;28;20037;-59
2022/12/22 11:59:12;;;;;;;5.32;3.97;;;13.40;79.00;;;;;;5049202;28;19969;-59
2022/12/22 12:01:59;;;;;;;10.10;4.57;;;13.60;78.40;;;;;;5036296;28;20029;-64
2022/12/22 12:04:39;;;;;;;9.52;5.40;;;14.70;77.10;;;;;;5038960;28;20140;-64
2022/12/22 12:07:26;;;;;;;8.23;5.38;;;14.90;74.10;;;;;;5046851;28;20028;-64
2022/12/22 12:10:24;;;;;;;11.60;5.50;;;14.20;74.00;;;;;;5044515;28;20043;-64
2022/12/22 12:13:46;;;;;;;9.38;4.68;;;13.40;75.90;;;;;;5027153;28;20037;-59
2022/12/22 12:16:31;;;;;;;8.75;5.18;;;12.60;78.00;;;;;;5042730;28;20151;-67
2022/12/22 12:19:30;;;;;;;11.82;6.15;;;12.20;79.50;;;;;;5037484;28;20441;-59
2022/12/22 12:22:28;;;;;;;8.25;5.70;;;12.00;80.30;;;;;;5050087;28;20039;-64
2022/12/22 12:25:02;;;;;;;13.02;4.80;;;12.00;81.00;;;;;;5039830;28;20044;-64
2022/12/22 12:27:43;;;;;;;7.70;4.60;;;12.30;80.80;;;;;;5045810;28;20036;-64
2022/12/22 12:30:12;;;;;;;9.15;4.07;;;12.50;79.90;;;;;;5042681;28;20056;-59
2022/12/22 12:32:58;;;;;;;7.03;4.97;;;12.50;79.90;;;;;;5048626;28;20108;-64
2022/12/22 12:35:51;;;;;;;6.22;4.50;;;12.40;79.90;;;;;;5048170;28;20107;-69
2022/12/22 12:38:25;;;;;;;9.38;5.63;;;12.20;80.50;;;;;;5048085;28;20021;-61
2022/12/22 12:41:16;;;;;;;6.40;3.95;;;12.00;81.00;;;;;;5046224;28;20030;-69
2022/12/22 12:43:43;;;;;;;10.27;5.75;;;11.90;82.10;;;;;;5036718;28;20057;-58
2022/12/22 12:46:39;;;;;;;8.10;4.18;;;11.90;81.70;;;;;;5040622;28;20033;-60
2022/12/22 12:49:34;;;;;;;8.95;4.65;;;11.90;81.80;;;;;;5045854;28;20029;-59
2022/12/22 12:52:01;;;;;;;9.10;4.47;;;11.80;82.10;;;;;;5045514;28;20033;-68
2022/12/22 12:54:40;;;;;;;7.85;5.30;;;11.70;82.20;;;;;;5046654;28;20053;-68
2022/12/22 12:57:31;;;;;;;8.95;4.45;;;11.60;82.50;;;;;;5045122;28;20021;-59
2022/12/22 13:00:00;;;;;;;6.43;4.18;;;11.60;82.60;;;;;;5050224;28;20041;-69
2022/12/22 13:02:39;;;;;;;7.78;3.75;;;11.50;82.60;;;;;;5036222;28;20021;-68
2022/12/22 13:05:10;;;;;;;5.28;3.75;;;11.50;82.10;;;;;;5049977;28;20445;-59
2022/12/22 13:08:15;;;;;;;6.60;3.78;;;11.50;82.30;;;;;;5050411;28;20028;-69
2022/12/22 13:10:43;;;;;;;5.70;3.00;;;11.40;81.90;;;;;;5040006;28;20043;-69
2022/12/22 13:13:20;;;;;;;4.75;3.13;;;11.40;82.30;;;;;;5045324;28;20037;-59
2022/12/22 13:15:59;;;;;;;11.38;4.65;;;11.40;82.20;;;;;;5040478;28;20029;-69
2022/12/22 13:18:24;;;;;;;6.20;3.85;;;11.30;82.10;;;;;;5048448;28;20029;-69
2022/12/22 13:21:07;;;;;;;10.50;3.85;;;11.30;81.80;;;;;;5039447;28;20413;-59
2022/12/22 13:23:43;;;;;;;6.55;3.10;;;11.30;81.60;;;;;;5081587;28;20031;-69
2022/12/22 13:26:13;;;;;;;5.88;3.70;;;11.20;81.50;;;;;;5046528;28;20025;-60
2022/12/22 13:28:42;;;;;;;8.20;4.10;;;11.10;81.20;;;;;;5039511;28;20033;-59
2022/12/22 13:31:23;;;;;;;4.75;3.53;;;11.10;81.30;;;;;;5044555;28;20033;-60
2022/12/22 13:34:18;;;;;;;6.53;3.80;;;11.00;81.30;;;;;;5043045;28;20403;-69
2022/12/22 13:36:46;;;;;;;7.35;4.05;;;11.00;81.10;;;;;;5042787;28;20067;-59
2022/12/22 13:39:14;;;;;;;8.15;4.55;;;10.90;81.10;;;;;;5054049;28;20028;-59
2022/12/22 13:42:00;;;;;;;8.20;4.22;;;10.90;81.30;;;;;;5048294;28;20027;-60
2022/12/22 13:44:31;;;;;;;10.30;4.68;;;11.00;81.20;;;;;;5036395;28;20043;-69
2022/12/22 13:47:11;;;;;;;8.15;4.63;;;10.90;81.20;;;;;;5043803;28;20025;-70
2022/12/22 13:49:40;;;;;;;9.75;5.28;;;10.90;81.40;;;;;;5048551;28;20029;-69
2022/12/22 13:52:13;;;;;;;7.10;4.82;;;10.90;81.50;;;;;;5046112;28;20453;-68
2022/12/22 13:54:43;;;;;;;9.57;4.95;;;10.90;82.10;;;;;;5040384;28;20034;-60
2022/12/22 13:57:20;;;;;;;8.73;5.60;;;10.90;81.70;;;;;;5045742;28;20021;-60
2022/12/22 13:59:49;;;;;;;8.63;5.88;;;10.90;81.70;;;;;;5041390;28;20017;-60
2022/12/22 14:02:19;;;;;;;8.40;5.70;;;10.90;81.80;;;;;;5044571;28;20434;-70
2022/12/22 14:05:03;;;;;;;8.73;5.47;;;10.90;81.80;;;;;;5049819;28;20472;-70
2022/12/22 14:07:29;;;;;;;9.48;4.82;;;11.10;81.80;;;;;;5044949;28;20014;-69
2022/12/22 14:09:55;;;;;;;9.98;5.93;;;11.10;81.70;;;;;;5044146;28;20428;-69
2022/12/22 14:12:24;;;;;;;9.35;5.75;;;11.10;81.70;;;;;;5041307;28;20693;-69
2022/12/22 14:14:52;;;;;;;8.73;5.63;;;11.10;81.80;;;;;;5048098;28;20411;-59
2022/12/22 14:17:36;;;;;;;10.63;6.88;;;11.10;81.90;;;;;;5044269;28;20126;-60
2022/12/22 14:20:25;;;;;;;7.82;5.72;;;11.10;81.90;;;;;;5045168;28;20119;-59
2022/12/22 14:23:04;;;;;;;13.93;5.75;;;11.10;82.10;;;;;;5040250;28;20075;-70
2022/12/22 14:25:35;;;;;;;15.00;6.90;;;11.10;82.20;;;;;;5050041;28;20124;-70
2022/12/22 14:28:02;;;;;;;10.02;5.65;;;11.10;82.20;;;;;;5043154;28;20574;-69
2022/12/22 14:30:33;;;;;;;10.80;5.57;;;11.10;82.20;;;;;;5047659;28;20025;-69
2022/12/22 14:33:22;;;;;;;7.25;4.82;;;11.10;82.10;;;;;;5041203;28;20028;-69
2022/12/22 14:35:48;;;;;;;9.32;4.60;;;11.20;82.10;;;;;;5052370;28;20443;-69
2022/12/22 14:38:21;;;;;;;7.32;5.35;;;11.10;82.20;;;;;;5042594;28;20068;-69
2022/12/22 14:40:47;;;;;;;9.27;6.30;;;11.20;82.10;;;;;;5030897;28;20092;-69
2022/12/22 14:43:26;;;;;;;11.50;6.35;;;11.20;82.20;;;;;;5044432;28;20044;-60
2022/12/22 14:46:05;;;;;;;10.25;6.07;;;11.20;82.20;;;;;;5048773;28;20116;-60
2022/12/22 14:48:36;;;;;;;10.02;6.47;;;11.20;82.20;;;;;;5040129;28;20082;-60
2022/12/22 14:51:02;;;;;;;8.30;5.30;;;11.20;82.20;;;;;;5047462;28;20032;-60
2022/12/22 14:53:48;;;;;;;8.93;5.75;;;11.20;82.20;;;;;;5049461;28;20029;-69
2022/12/22 14:56:16;;;;;;;7.88;5.60;;;11.30;82.20;;;;;;5031086;28;20128;-69
2022/12/22 14:58:43;;;;;;;10.18;6.22;;;11.30;82.30;;;;;;5046016;28;20044;-60
2022/12/22 15:01:20;;;;;;;8.13;5.43;;;11.30;82.30;;;;;;5040741;28;20383;-59
2022/12/22 15:04:05;;;;;;;9.68;5.25;;;11.30;82.20;;;;;;5042542;28;20130;-60
2022/12/22 15:06:35;;;;;;;8.63;6.03;;;11.30;82.20;;;;;;5045095;28;20074;-60
2022/12/22 15:09:07;;;;;;;9.90;5.22;;;11.30;82.30;;;;;;5040901;28;20031;-60
2022/12/22 15:11:36;;;;;;;7.80;5.80;;;11.30;82.30;;;;;;5045416;28;20082;-59
2022/12/22 15:14:03;;;;;;;8.00;4.65;;;11.30;82.30;;;;;;5052244;28;20512;-69
2022/12/22 15:16:29;;;;;;;10.00;4.78;;;11.30;82.30;;;;;;5045876;28;20364;-70
2022/12/22 15:18:55;;;;;;;9.85;5.32;;;11.30;82.90;;;;;;5035766;28;20076;-69
2022/12/22 15:21:21;;;;;;;11.90;5.90;;;11.30;82.40;;;;;;5042572;28;20136;-69
2022/12/22 15:23:50;;;;;;;9.77;6.03;;;11.30;82.50;;;;;;5034450;28;20025;-69
2022/12/22 15:26:16;;;;;;;15.27;6.50;;;11.20;82.60;;;;;;5040523;28;20036;-69
2022/12/22 15:28:41;;;;;;;7.82;5.45;;;11.10;82.70;;;;;;5039076;28;20029;-69
2022/12/22 15:31:14;;;;;;;12.00;6.00;;;11.10;82.80;;;;;;5031119;28;20088;-69
2022/12/22 15:33:41;;;;;;;7.97;5.55;;;11.20;82.90;;;;;;5041346;28;20074;-69
2022/12/22 15:36:12;;;;;;;9.60;5.80;;;11.20;82.80;;;;;;5041907;28;20091;-69
2022/12/22 15:38:38;;;;;;;9.25;5.97;;;11.20;82.90;;;;;;5035223;28;20501;-59
2022/12/22 15:41:04;;;;;;;14.65;6.15;;;11.10;82.90;;;;;;5038370;28;20027;-59
2022/12/22 15:43:30;;;;;;;10.75;5.53;;;11.10;83.00;;;;;;5046044;28;20408;-60
2022/12/22 15:45:56;;;;;;;10.45;6.63;;;11.20;83.00;;;;;;5033052;28;20021;-59
2022/12/22 15:48:32;;;;;;;11.93;6.28;;;11.20;83.00;;;;;;5033549;28;20487;-59
2022/12/22 15:51:00;;;;;;;7.38;5.13;;;11.20;83.00;;;;;;5040057;28;20108;-69
2022/12/22 15:53:26;;;;;;;8.98;5.07;;;11.10;83.10;;;;;;5040053;28;20064;-60
2022/12/22 15:55:54;;;;;;;8.80;5.47;;;11.20;83.10;;;;;;5043585;28;20076;-69
2022/12/22 15:58:27;;;;;;;9.45;5.60;;;11.20;83.10;;;;;;5037565;28;20553;-59
2022/12/22 16:00:53;;;;;;;9.18;5.72;;;11.20;83.10;;;;;;5047129;28;20020;-69
2022/12/22 16:03:19;;;;;;;9.55;5.38;;;11.20;83.20;;;;;;5040104;28;20029;-60
2022/12/22 16:05:45;;;;;;;8.55;4.88;;;11.10;83.20;;;;;;5037927;28;20052;-59
2022/12/22 16:08:19;;;;;;;8.75;5.78;;;11.10;83.20;;;;;;5043878;28;20040;-59
2022/12/22 16:10:45;;;;;;;8.48;5.25;;;11.10;83.30;;;;;;5059750;28;20073;-68
2022/12/22 16:13:14;;;;;;;16.23;6.20;;;11.10;83.20;;;;;;5036168;28;20061;-67
2022/12/22 16:15:40;;;;;;;6.80;5.38;;;11.10;83.30;;;;;;5040335;28;20104;-67
2022/12/22 16:18:06;;;;;;;9.52;6.35;;;11.10;83.40;;;;;;5030768;28;20360;-58
2022/12/22 16:20:37;;;;;;;9.48;5.18;;;11.10;83.50;;;;;;5030839;28;20048;-59
2022/12/22 16:23:04;;;;;;;12.93;6.03;;;11.10;83.60;;;;;;5035190;28;20025;-58
2022/12/22 16:25:34;;;;;;;11.48;4.90;;;11.10;83.70;;;;;;5044841;28;20274;-59
2022/12/22 16:28:00;;;;;;;9.35;5.03;;;11.10;83.70;;;;;;5043122;28;20403;-59
2022/12/22 16:30:30;;;;;;;9.30;5.25;;;11.00;83.70;;;;;;5042839;28;20563;-67
2022/12/22 16:32:56;;;;;;;8.68;5.35;;;11.00;83.80;;;;;;5051177;28;20029;-67
2022/12/22 16:35:27;;;;;;;7.93;5.65;;;11.00;84.00;;;;;;5031943;28;20035;-68
2022/12/22 16:37:58;;;;;;;7.40;5.18;;;11.00;84.10;;;;;;5033982;28;20475;-67
2022/12/22 16:40:25;;;;;;;7.03;4.97;;;11.00;84.10;;;;;;5040234;28;20017;-67
2022/12/22 16:43:12;;;;;;;8.27;4.10;;;11.00;84.20;;;;;;5049334;28;20502;-67